createdAt,value
2018-09-25T00:01:41.793Z,102692.05
2018-09-25T00:04:15.824Z,102693.38
2018-09-25T00:06:49.980Z,102693.97
2018-09-25T00:09:23.877Z,102701.58
2018-09-25T00:11:58.170Z,102701.45
2018-09-25T00:14:32.220Z,102696.78
2018-09-25T00:17:06.327Z,102701.09
2018-09-25T00:19:40.406Z,102700.98
2018-09-25T00:22:15.647Z,102712.62
2018-09-25T00:24:49.605Z,102710.83
2018-09-25T00:27:23.692Z,102712.11
2018-09-25T00:29:57.985Z,102707.55
2018-09-25T00:32:32.007Z,102714.64
2018-09-25T00:35:05.938Z,102715.42
2018-09-25T00:37:40.120Z,102719.67
2018-09-25T00:40:14.212Z,102719.60
2018-09-25T00:42:48.990Z,102718.14
2018-09-25T00:45:23.357Z,102721.39
2018-09-25T00:47:57.641Z,102724.79
2018-09-25T00:50:32.332Z,102726.86
2018-09-25T00:53:06.318Z,102719.28
2018-09-25T00:55:40.961Z,102721.34
2018-09-25T00:58:15.897Z,102720.46
2018-09-25T01:00:50.060Z,102723.38
2018-09-25T01:03:24.221Z,102726.19
2018-09-25T01:05:58.336Z,102731.75
2018-09-25T01:08:32.319Z,102736.52
2018-09-25T01:11:07.321Z,102738.39
2018-09-25T01:13:42.249Z,102738.59
2018-09-25T01:16:16.231Z,102740.50
2018-09-25T01:18:50.457Z,102740.38
2018-09-25T01:21:24.282Z,102745.10
2018-09-25T01:23:58.250Z,102750.95
2018-09-25T01:26:32.403Z,102749.02
2018-09-25T01:29:06.492Z,102749.32
2018-09-25T01:31:40.646Z,102752.59
2018-09-25T01:34:14.860Z,102756.98
2018-09-25T01:36:48.833Z,102758.42
2018-09-25T01:39:22.937Z,102760.02
2018-09-25T01:41:57.791Z,102766.73
2018-09-25T01:44:32.622Z,102756.69
2018-09-25T01:47:06.741Z,102761.93
2018-09-25T01:49:40.730Z,102769.32
2018-09-25T01:52:16.175Z,102767.66
2018-09-25T01:54:51.001Z,102761.69
2018-09-25T01:57:25.217Z,102766.87
2018-09-25T01:59:59.739Z,102762.64
2018-09-25T02:02:34.753Z,102774.08
2018-09-25T02:05:08.689Z,102771.25
2018-09-25T02:07:42.922Z,102782.94
2018-09-25T02:10:17.625Z,102782.50
2018-09-25T02:12:51.574Z,102784.27
2018-09-25T02:15:26.730Z,102787.68
2018-09-25T02:18:01.855Z,102795.59
2018-09-25T02:20:35.895Z,102788.50
2018-09-25T02:23:09.887Z,102789.59
2018-09-25T02:25:44.756Z,102796.51
2018-09-25T02:28:20.765Z,102804.17
2018-09-25T02:30:55.406Z,102803.16
2018-09-25T02:33:30.492Z,102804.27
2018-09-25T02:36:05.663Z,102804.81
2018-09-25T02:38:39.863Z,102808.56
2018-09-25T02:41:14.124Z,102804.65
2018-09-25T02:43:48.078Z,102808.30
2018-09-25T02:46:22.060Z,102811.59
2018-09-25T02:48:56.055Z,102808.30
2018-09-25T02:51:37.415Z,102820.45
2018-09-25T02:54:12.024Z,102820.11
2018-09-25T02:56:46.459Z,102831.33
2018-09-25T02:59:20.863Z,102829.05
2018-09-25T03:01:55.006Z,102836.09
2018-09-25T03:04:29.098Z,102835.95
2018-09-25T03:07:03.599Z,102840.47
2018-09-25T03:09:37.844Z,102835.00
2018-09-25T03:12:11.818Z,102839.21
2018-09-25T03:14:46.635Z,102841.59
2018-09-25T03:17:20.884Z,102840.11
2018-09-25T03:19:54.943Z,102836.45
2018-09-25T03:22:30.520Z,102841.01
2018-09-25T03:25:04.530Z,102845.98
2018-09-25T03:27:39.871Z,102847.49
2018-09-25T03:30:13.956Z,102845.69
2018-09-25T03:32:48.284Z,102853.02
2018-09-25T03:35:22.929Z,102851.69
2018-09-25T03:37:57.762Z,102856.16
2018-09-25T03:40:32.081Z,102853.97
2018-09-25T03:43:06.197Z,102854.28
2018-09-25T03:45:41.224Z,102853.08
2018-09-25T03:48:15.095Z,102860.06
2018-09-25T03:50:49.336Z,102871.78
2018-09-25T03:53:23.320Z,102876.01
2018-09-25T03:55:57.726Z,102870.55
2018-09-25T03:58:31.877Z,102879.00
2018-09-25T04:01:06.845Z,102879.47
2018-09-25T04:03:41.402Z,102889.52
2018-09-25T04:06:15.497Z,102893.13
2018-09-25T04:08:49.410Z,102895.66
2018-09-25T04:11:23.748Z,102903.43
2018-09-25T04:13:58.154Z,102903.18
2018-09-25T04:16:32.924Z,102911.31
2018-09-25T04:19:07.375Z,102921.05
2018-09-25T04:21:42.906Z,102929.41
2018-09-25T04:24:18.217Z,102931.77
2018-09-25T04:26:52.805Z,102939.45
2018-09-25T04:29:27.726Z,102938.50
2018-09-25T04:32:02.742Z,102942.93
2018-09-25T04:34:36.925Z,102937.81
2018-09-25T04:37:11.093Z,102941.30
2018-09-25T04:39:45.551Z,102952.27
2018-09-25T04:42:19.956Z,102951.95
2018-09-25T04:44:54.478Z,102958.17
2018-09-25T04:47:28.767Z,102962.44
2018-09-25T04:50:03.288Z,102966.58
2018-09-25T04:52:37.262Z,102966.58
2018-09-25T04:55:11.343Z,102976.06
2018-09-25T04:57:46.031Z,102971.33
2018-09-25T05:00:20.426Z,102977.87
2018-09-25T05:02:54.777Z,102970.19
2018-09-25T05:05:28.685Z,102969.81
2018-09-25T05:08:02.846Z,102975.41
2018-09-25T05:10:36.714Z,102983.65
2018-09-25T05:13:11.635Z,102983.05
2018-09-25T05:15:45.560Z,102987.63
2018-09-25T05:18:19.455Z,102989.53
2018-09-25T05:20:53.725Z,102989.63
2018-09-25T05:23:27.938Z,102987.83
2018-09-25T05:26:01.752Z,102995.03
2018-09-25T05:28:35.569Z,102995.84
2018-09-25T05:31:09.782Z,102998.72
2018-09-25T05:33:45.219Z,103004.66
2018-09-25T05:36:19.726Z,103000.37
2018-09-25T05:38:54.161Z,103004.92
2018-09-25T05:41:28.348Z,103008.97
2018-09-25T05:44:02.615Z,103010.94
2018-09-25T05:46:36.978Z,103012.55
2018-09-25T05:49:11.268Z,103015.11
2018-09-25T05:51:46.172Z,103028.07
2018-09-25T05:54:20.839Z,103024.38
2018-09-25T05:56:55.778Z,103020.39
2018-09-25T05:59:29.680Z,103031.77
2018-09-25T06:02:04.013Z,103034.81
2018-09-25T06:04:38.418Z,103041.45
2018-09-25T06:07:13.730Z,103045.69
2018-09-25T06:09:47.735Z,103045.59
2018-09-25T06:12:21.901Z,103047.39
2018-09-25T06:14:56.226Z,103051.66
2018-09-25T06:17:30.114Z,103049.58
2018-09-25T06:20:04.543Z,103051.88
2018-09-25T06:22:39.358Z,103055.20
2018-09-25T06:25:13.368Z,103054.03
2018-09-25T06:27:48.005Z,103060.64
2018-09-25T06:30:22.556Z,103064.62
2018-09-25T06:32:57.186Z,103074.17
2018-09-25T06:35:31.682Z,103071.80
2018-09-25T06:38:06.743Z,103078.50
2018-09-25T06:40:40.766Z,103076.12
2018-09-25T06:43:15.595Z,103077.41
2018-09-25T06:45:49.863Z,103083.25
2018-09-25T06:48:23.929Z,103080.59
2018-09-25T06:50:58.668Z,103090.08
2018-09-25T06:53:33.641Z,103090.04
2018-09-25T06:56:08.510Z,103089.46
2018-09-25T06:58:43.406Z,103095.13
2018-09-25T07:01:17.589Z,103091.41
2018-09-25T07:03:51.806Z,103090.25
2018-09-25T07:06:27.092Z,103102.10
2018-09-25T07:09:01.911Z,103106.22
2018-09-25T07:11:37.232Z,103110.95
2018-09-25T07:14:13.362Z,103119.45
2018-09-25T07:16:47.404Z,103122.17
2018-09-25T07:19:22.318Z,103123.81
2018-09-25T07:21:56.410Z,103126.26
2018-09-25T07:24:30.619Z,103131.48
2018-09-25T07:27:05.751Z,103137.30
2018-09-25T07:29:40.740Z,103140.08
2018-09-25T07:32:15.304Z,103136.55
2018-09-25T07:34:50.304Z,103142.93
2018-09-25T07:37:25.171Z,103149.42
2018-09-25T07:39:59.924Z,103147.12
2018-09-25T07:42:33.885Z,103143.84
2018-09-25T07:45:08.228Z,103148.73
2018-09-25T07:47:42.417Z,103154.87
2018-09-25T07:50:16.320Z,103154.06
2018-09-25T07:52:51.911Z,103151.66
2018-09-25T07:55:27.009Z,103158.71
2018-09-25T07:58:02.506Z,103164.06
2018-09-25T08:00:36.612Z,103160.77
2018-09-25T08:03:11.070Z,103156.62
2018-09-25T08:05:47.365Z,103159.11
2018-09-25T08:08:23.486Z,103159.80
2018-09-25T08:10:59.237Z,103167.19
2018-09-25T08:13:34.035Z,103170.24
2018-09-25T08:16:08.458Z,103166.59
2018-09-25T08:18:43.510Z,103167.30
2018-09-25T08:21:18.141Z,103168.56
2018-09-25T08:23:52.260Z,103173.98
2018-09-25T08:26:26.184Z,103182.13
2018-09-25T08:29:00.203Z,103174.04
2018-09-25T08:31:34.300Z,103178.50
2018-09-25T08:34:08.417Z,103182.56
2018-09-25T08:36:42.616Z,103182.97
2018-09-25T08:39:17.327Z,103193.38
2018-09-25T08:41:51.299Z,103188.52
2018-09-25T08:44:25.605Z,103186.20
2018-09-25T08:46:59.542Z,103196.20
2018-09-25T08:49:34.337Z,103197.10
2018-09-25T08:52:09.096Z,103200.42
2018-09-25T08:54:46.106Z,103200.42
2018-09-25T08:57:21.750Z,103199.09
2018-09-25T09:02:47.746Z,103209.99
2018-09-25T09:05:24.786Z,103215.28
2018-09-25T09:08:12.311Z,103212.29
2018-09-25T09:10:59.863Z,103215.72
2018-09-25T09:13:47.350Z,103218.20
2018-09-25T09:16:22.816Z,103215.71
2018-09-25T09:18:57.955Z,103218.11
2018-09-25T09:21:31.903Z,103216.75
2018-09-25T09:24:06.166Z,103221.86
2018-09-25T09:26:40.145Z,103223.84
2018-09-25T09:29:14.054Z,103223.72
2018-09-25T09:31:49.644Z,103226.19
2018-09-25T09:34:23.791Z,103229.20
2018-09-25T09:36:58.077Z,103230.44
2018-09-25T09:39:33.474Z,103234.89
2018-09-25T09:42:07.938Z,103225.98
2018-09-25T09:44:42.243Z,103227.91
2018-09-25T09:47:16.649Z,103239.67
2018-09-25T09:49:50.763Z,103241.11
2018-09-25T09:52:25.032Z,103242.02
2018-09-25T09:54:59.089Z,103245.20
2018-09-25T09:57:32.990Z,103241.72
2018-09-25T10:00:07.988Z,103238.45
2018-09-25T10:02:42.050Z,103239.29
2018-09-25T10:05:16.089Z,103246.08
2018-09-25T10:07:50.351Z,103246.15
2018-09-25T10:10:24.367Z,103245.26
2018-09-25T10:12:59.039Z,103242.58
2018-09-25T10:15:33.418Z,103238.45
2018-09-25T10:18:07.782Z,103238.73
2018-09-25T10:20:42.161Z,103236.98
2018-09-25T10:23:16.150Z,103232.82
2018-09-25T10:25:50.071Z,103233.00
2018-09-25T10:28:23.975Z,103241.30
2018-09-25T10:30:58.089Z,103240.10
2018-09-25T10:33:32.254Z,103240.33
2018-09-25T10:36:06.158Z,103237.14
2018-09-25T10:38:40.064Z,103239.52
2018-09-25T10:41:14.638Z,103243.36
2018-09-25T10:43:49.420Z,103234.13
2018-09-25T10:46:24.307Z,103238.49
2018-09-25T10:48:58.912Z,103242.84
2018-09-25T10:51:32.943Z,103237.11
2018-09-25T10:54:06.841Z,103248.51
2018-09-25T10:56:40.719Z,103243.41
2018-09-25T10:59:14.546Z,103248.34
2018-09-25T11:01:48.425Z,103245.67
2018-09-25T11:04:22.403Z,103244.76
2018-09-25T11:06:56.223Z,103252.88
2018-09-25T11:09:30.314Z,103253.09
2018-09-25T11:12:04.316Z,103252.45
2018-09-25T11:14:38.731Z,103248.49
2018-09-25T11:17:12.954Z,103248.28
2018-09-25T11:19:47.062Z,103251.03
2018-09-25T11:22:21.128Z,103250.95
2018-09-25T11:24:54.954Z,103254.52
2018-09-25T11:27:28.835Z,103255.01
2018-09-25T11:30:03.498Z,103260.09
2018-09-25T11:32:38.047Z,103259.80
2018-09-25T11:35:12.621Z,103260.38
2018-09-25T11:37:46.576Z,103255.55
2018-09-25T11:40:21.511Z,103259.27
2018-09-25T11:42:57.111Z,103259.22
2018-09-25T11:45:30.966Z,103251.17
2018-09-25T11:48:04.831Z,103260.53
2018-09-25T11:50:39.334Z,103263.05
2018-09-25T11:53:13.281Z,103261.83
2018-09-25T11:55:47.218Z,103262.05
2018-09-25T11:58:21.288Z,103261.51
2018-09-25T12:00:55.138Z,103260.94
2018-09-25T12:03:29.147Z,103259.92
2018-09-25T12:06:03.985Z,103259.59
2018-09-25T12:08:37.848Z,103257.56
2018-09-25T12:11:12.356Z,103261.67
2018-09-25T12:13:46.650Z,103260.09
2018-09-25T12:16:21.056Z,103255.34
2018-09-25T12:18:55.728Z,103256.70
2018-09-25T12:21:29.636Z,103266.97
2018-09-25T12:24:03.785Z,103268.66
2018-09-25T12:26:37.843Z,103271.34
2018-09-25T12:29:11.828Z,103268.92
2018-09-25T12:31:46.055Z,103273.23
2018-09-25T12:34:20.190Z,103266.97
2018-09-25T12:36:54.138Z,103275.59
2018-09-25T12:39:28.120Z,103274.65
2018-09-25T12:42:02.140Z,103266.68
2018-09-25T12:44:36.258Z,103269.84
2018-09-25T12:47:10.621Z,103268.83
2018-09-25T12:49:44.867Z,103266.48
2018-09-25T12:52:18.944Z,103264.15
2018-09-25T12:54:53.062Z,103265.12
2018-09-25T12:57:26.957Z,103256.82
2018-09-25T13:00:01.205Z,103252.45
2018-09-25T13:02:35.085Z,103257.56
2018-09-25T13:05:09.067Z,103262.33
2018-09-25T13:07:43.032Z,103256.80
2018-09-25T13:10:17.898Z,103258.49
2018-09-25T13:12:52.258Z,103266.15
2018-09-25T13:15:26.711Z,103256.84
2018-09-25T13:18:00.793Z,103258.44
2018-09-25T13:20:34.769Z,103269.80
2018-09-25T13:23:09.019Z,103269.08
2018-09-25T13:25:45.302Z,103265.62
2018-09-25T13:28:19.224Z,103271.91
2018-09-25T13:30:53.233Z,103271.94
2018-09-25T13:33:27.266Z,103271.59
2018-09-25T13:36:01.305Z,103264.61
2018-09-25T13:38:35.379Z,103258.97
2018-09-25T13:41:09.456Z,103253.77
2018-09-25T13:43:43.251Z,103260.30
2018-09-25T13:46:17.248Z,103246.42
2018-09-25T13:48:51.264Z,103249.33
2018-09-25T13:51:25.146Z,103251.42
2018-09-25T13:53:59.337Z,103251.05
2018-09-25T13:56:34.597Z,103257.67
2018-09-25T13:59:08.489Z,103256.80
2018-09-25T14:01:42.381Z,103246.29
2018-09-25T14:04:17.038Z,103247.55
2018-09-25T14:06:51.175Z,103239.48
2018-09-25T14:09:25.059Z,103234.30
2018-09-25T14:11:59.022Z,103236.04
2018-09-25T14:14:32.870Z,103233.70
2018-09-25T14:17:06.942Z,103233.35
2018-09-25T14:19:40.783Z,103223.78
2018-09-25T14:22:14.980Z,103218.29
2018-09-25T14:24:49.345Z,103217.86
2018-09-25T14:27:23.396Z,103213.15
2018-09-25T14:29:57.331Z,103222.42
2018-09-25T14:32:31.312Z,103219.56
2018-09-25T14:35:05.327Z,103225.79
2018-09-25T14:37:39.324Z,103224.34
2018-09-25T14:40:13.450Z,103227.86
2018-09-25T14:42:47.698Z,103221.38
2018-09-25T14:45:21.586Z,103226.78
2018-09-25T14:47:55.795Z,103220.86
2018-09-25T14:50:29.750Z,103223.55
2018-09-25T14:53:03.532Z,103216.47
2018-09-25T14:55:37.368Z,103219.35
2018-09-25T14:58:11.706Z,103222.64
2018-09-25T15:00:45.808Z,103222.56
2018-09-25T15:03:20.193Z,103225.60
2018-09-25T15:05:55.006Z,103217.90
2018-09-25T15:08:28.950Z,103218.97
2018-09-25T15:11:03.090Z,103217.13
2018-09-25T15:13:37.538Z,103216.78
2018-09-25T15:16:11.672Z,103218.17
2018-09-25T15:18:45.674Z,103221.30
2018-09-25T15:21:20.051Z,103215.44
2018-09-25T15:23:54.139Z,103213.88
2018-09-25T15:26:30.195Z,103219.73
2018-09-25T15:29:04.382Z,103227.16
2018-09-25T15:31:38.436Z,103225.47
2018-09-25T15:34:12.712Z,103229.00
2018-09-25T15:36:46.778Z,103221.80
2018-09-25T15:39:21.969Z,103224.34
2018-09-25T15:41:56.947Z,103221.62
2018-09-25T15:44:31.368Z,103228.42
2018-09-25T15:47:05.529Z,103224.80
2018-09-25T15:49:39.469Z,103227.93
2018-09-25T15:52:14.053Z,103237.39
2018-09-25T15:54:48.687Z,103236.13
2018-09-25T15:57:23.256Z,103240.27
2018-09-25T15:59:58.050Z,103241.17
2018-09-25T16:02:32.160Z,103243.07
2018-09-25T16:05:06.361Z,103246.86
2018-09-25T16:07:40.385Z,103252.85
2018-09-25T16:10:14.399Z,103261.03
2018-09-25T16:13:05.963Z,103264.98
2018-09-25T16:15:44.755Z,103272.08
2018-09-25T16:18:19.986Z,103266.82
2018-09-25T16:20:54.395Z,103255.01
2018-09-25T16:23:28.746Z,103262.00
2018-09-25T16:26:08.596Z,103258.23
2018-09-25T16:28:55.697Z,103248.06
2018-09-25T16:31:30.010Z,103253.35
2018-09-25T16:34:04.157Z,103249.28
2018-09-25T16:36:38.465Z,103247.63
2018-09-25T16:39:15.067Z,103258.34
2018-09-25T16:41:49.775Z,103253.03
2018-09-25T16:44:23.921Z,103248.29
2018-09-25T16:47:00.315Z,103251.51
2018-09-25T16:49:34.683Z,103254.59
2018-09-25T16:52:08.959Z,103254.64
2018-09-25T16:54:43.299Z,103268.91
2018-09-25T16:57:17.277Z,103274.80
2018-09-25T16:59:52.106Z,103280.08
2018-09-25T17:02:26.257Z,103274.88
2018-09-25T17:05:00.896Z,103273.42
2018-09-25T17:07:35.027Z,103272.00
2018-09-25T17:10:09.209Z,103287.95
2018-09-25T17:12:43.235Z,103283.48
2018-09-25T17:15:17.512Z,103288.59
2018-09-25T17:17:51.771Z,103290.70
2018-09-25T17:20:25.877Z,103292.28
2018-09-25T17:23:00.050Z,103297.91
2018-09-25T17:25:34.482Z,103293.77
2018-09-25T17:28:08.498Z,103286.50
2018-09-25T17:30:42.596Z,103285.52
2018-09-25T17:33:16.671Z,103290.78
2018-09-25T17:35:51.195Z,103295.52
2018-09-25T17:38:25.430Z,103298.22
2018-09-25T17:40:59.328Z,103304.82
2018-09-25T17:43:33.417Z,103297.40
2018-09-25T17:46:07.351Z,103298.00
2018-09-25T17:48:41.292Z,103302.28
2018-09-25T17:51:15.314Z,103311.89
2018-09-25T17:53:49.628Z,103309.45
2018-09-25T17:56:23.689Z,103314.81
2018-09-25T17:58:57.540Z,103315.20
2018-09-25T18:01:31.755Z,103311.91
2018-09-25T18:04:05.771Z,103312.52
2018-09-25T18:06:39.725Z,103307.42
2018-09-25T18:09:15.152Z,103304.75
2018-09-25T18:11:49.072Z,103309.81
2018-09-25T18:14:23.153Z,103312.49
2018-09-25T18:16:57.149Z,103315.80
2018-09-25T18:19:31.368Z,103305.70
2018-09-25T18:22:05.291Z,103307.64
2018-09-25T18:24:39.330Z,103300.95
2018-09-25T18:27:13.395Z,103300.95
2018-09-25T18:29:47.302Z,103301.19
2018-09-25T18:32:21.160Z,103300.85
2018-09-25T18:34:55.225Z,103300.59
2018-09-25T18:37:29.109Z,103299.01
2018-09-25T18:40:03.389Z,103304.73
2018-09-25T18:42:37.832Z,103304.11
2018-09-25T18:45:12.016Z,103301.70
2018-09-25T18:47:46.287Z,103300.97
2018-09-25T18:50:20.518Z,103296.84
2018-09-25T18:52:54.429Z,103298.78
2018-09-25T18:55:28.951Z,103310.44
2018-09-25T18:58:03.131Z,103310.44
2018-09-25T19:00:36.983Z,103316.02
2018-09-25T19:03:11.225Z,103320.03
2018-09-25T19:05:45.278Z,103317.02
2018-09-25T19:08:19.940Z,103317.98
2018-09-25T19:10:53.810Z,103312.50
2018-09-25T19:13:27.823Z,103310.45
2018-09-25T19:16:02.608Z,103309.60
2018-09-25T19:18:36.594Z,103321.23
2018-09-25T19:21:10.943Z,103316.62
2018-09-25T19:23:45.243Z,103310.42
2018-09-25T19:26:19.266Z,103317.70
2018-09-25T19:28:53.354Z,103316.99
2018-09-25T19:31:27.664Z,103317.95
2018-09-25T19:34:01.698Z,103315.03
2018-09-25T19:36:36.335Z,103320.59
2018-09-25T19:39:14.013Z,103317.80
2018-09-25T19:41:52.772Z,103324.00
2018-09-25T19:44:33.531Z,103327.38
2018-09-25T19:47:10.696Z,103322.03
2018-09-25T19:49:45.428Z,103322.39
2018-09-25T19:52:20.163Z,103320.78
2018-09-25T19:54:54.421Z,103326.61
2018-09-25T19:57:29.306Z,103323.30
2018-09-25T20:00:03.722Z,103321.97
2018-09-25T20:02:42.505Z,103318.92
2018-09-25T20:05:16.570Z,103325.47
2018-09-25T20:07:51.793Z,103325.42
2018-09-25T20:10:27.075Z,103325.56
2018-09-25T20:13:02.925Z,103327.98
2018-09-25T20:15:37.135Z,103321.20
2018-09-25T20:18:11.711Z,103321.09
2018-09-25T20:20:47.811Z,103323.77
2018-09-25T20:23:21.748Z,103318.53
2018-09-25T20:25:56.118Z,103326.16
2018-09-25T20:28:30.014Z,103327.22
2018-09-25T20:31:04.785Z,103333.95
2018-09-25T20:33:38.954Z,103343.69
2018-09-25T20:36:13.120Z,103341.77
2018-09-25T20:38:47.387Z,103335.70
2018-09-25T20:41:21.447Z,103340.08
2018-09-25T20:43:55.642Z,103348.33
2018-09-25T20:46:29.564Z,103348.06
2018-09-25T20:49:04.147Z,103350.36
2018-09-25T20:51:38.031Z,103350.94
2018-09-25T20:54:12.118Z,103358.09
2018-09-25T20:56:47.148Z,103361.95
2018-09-25T20:59:21.044Z,103365.66
2018-09-25T21:01:55.470Z,103358.99
2018-09-25T21:04:29.900Z,103352.97
2018-09-25T21:07:04.287Z,103349.44
2018-09-25T21:09:38.288Z,103347.63
2018-09-25T21:12:12.535Z,103349.23
2018-09-25T21:14:46.534Z,103340.38
2018-09-25T21:17:21.544Z,103344.38
2018-09-25T21:19:55.645Z,103342.08
2018-09-25T21:22:29.554Z,103338.42
2018-09-25T21:25:03.855Z,103349.09
2018-09-25T21:27:38.062Z,103343.41
2018-09-25T21:30:11.911Z,103342.08
2018-09-25T21:32:45.982Z,103337.81
2018-09-25T21:35:20.705Z,103337.41
2018-09-25T21:37:54.633Z,103343.91
2018-09-25T21:40:29.304Z,103352.53
2018-09-25T21:43:03.196Z,103345.70
2018-09-25T21:45:37.172Z,103346.28
2018-09-25T21:48:12.438Z,103339.85
2018-09-25T21:50:46.773Z,103342.52
2018-09-25T21:53:21.801Z,103340.81
2018-09-25T21:55:56.088Z,103337.63
2018-09-25T21:58:31.332Z,103329.84
2018-09-25T22:01:05.548Z,103328.71
2018-09-25T22:03:39.842Z,103319.34
2018-09-25T22:06:14.219Z,103321.39
2018-09-25T22:08:48.022Z,103323.41
2018-09-25T22:11:22.726Z,103323.27
2018-09-25T22:13:56.589Z,103317.33
2018-09-25T22:16:30.538Z,103310.66
2018-09-25T22:19:04.575Z,103306.42
2018-09-25T22:21:38.757Z,103303.52
2018-09-25T22:24:13.838Z,103311.66
2018-09-25T22:26:48.123Z,103308.92
2018-09-25T22:29:22.235Z,103297.54
2018-09-25T22:31:56.196Z,103294.97
2018-09-25T22:34:30.584Z,103298.70
2018-09-25T22:37:06.104Z,103317.70
2018-09-25T22:39:42.088Z,103317.59
2018-09-25T22:42:17.627Z,103310.48
2018-09-25T22:44:53.488Z,103289.50
2018-09-25T22:47:27.666Z,103282.09
2018-09-25T22:50:02.092Z,103278.77
2018-09-25T22:52:35.970Z,103273.69
2018-09-25T22:55:11.475Z,103268.91
2018-09-25T22:57:45.307Z,103257.55
2018-09-25T23:00:19.255Z,103260.59
2018-09-25T23:02:53.787Z,103264.84
2018-09-25T23:05:28.283Z,103266.44
2018-09-25T23:08:02.331Z,103262.59
2018-09-25T23:10:36.438Z,103262.63
2018-09-25T23:13:10.852Z,103262.50
2018-09-25T23:15:45.556Z,103268.96
2018-09-25T23:18:19.277Z,103269.34
2018-09-25T23:20:53.207Z,103264.25
2018-09-25T23:23:27.252Z,103272.39
2018-09-25T23:26:01.300Z,103275.71
2018-09-25T23:28:35.439Z,103286.60
2018-09-25T23:31:10.467Z,103284.17
2018-09-25T23:33:44.380Z,103284.44
2018-09-25T23:36:18.533Z,103287.25
2018-09-25T23:38:52.637Z,103279.64
2018-09-25T23:41:28.758Z,103293.23
2018-09-25T23:44:03.014Z,103290.39
2018-09-25T23:46:39.333Z,103288.05
2018-09-25T23:49:14.466Z,103281.81
2018-09-25T23:52:14.030Z,103284.09
2018-09-25T23:54:48.163Z,103280.95
2018-09-25T23:57:23.989Z,103278.01
